sensor_id;sensor_type;location;lat;lon;timestamp;pressure;altitude;pressure_sealevel;temperature;humidity
9676;BME280;4876;42.656;23.292;2022-07-01T00:01:29;94362.03;;;23.38;60.95
9676;BME280;4876;42.656;23.292;2022-07-01T00:03:55;94371.97;;;23.48;59.72
9676;BME280;4876;42.656;23.292;2022-07-01T00:06:24;94379.34;;;23.19;60.77
9676;BME280;4876;42.656;23.292;2022-07-01T00:08:51;94368.25;;;23.17;61.70
9676;BME280;4876;42.656;23.292;2022-07-01T00:11:18;94367.84;;;23.26;61.01
9676;BME280;4876;42.656;23.292;2022-07-01T00:13:44;94364.78;;;23.17;60.08
9676;BME280;4876;42.656;23.292;2022-07-01T00:16:11;94367.88;;;23.08;60.51
9676;BME280;4876;42.656;23.292;2022-07-01T00:18:38;94367.16;;;22.82;61.23
9676;BME280;4876;42.656;23.292;2022-07-01T00:21:05;94377.91;;;22.93;61.98
9676;BME280;4876;42.656;23.292;2022-07-01T00:23:33;94377.50;;;22.84;61.55
9676;BME280;4876;42.656;23.292;2022-07-01T00:26:00;94381.03;;;22.38;62.85
9676;BME280;4876;42.656;23.292;2022-07-01T00:28:27;94378.34;;;22.35;63.51
9676;BME280;4876;42.656;23.292;2022-07-01T00:30:53;94380.66;;;22.11;63.80
9676;BME280;4876;42.656;23.292;2022-07-01T00:33:20;94380.22;;;22.06;64.40
9676;BME280;4876;42.656;23.292;2022-07-01T00:35:47;94381.00;;;22.06;63.88
9676;BME280;4876;42.656;23.292;2022-07-01T00:38:14;94379.84;;;22.11;63.91
9676;BME280;4876;42.656;23.292;2022-07-01T00:40:42;94381.34;;;21.97;65.98
9676;BME280;4876;42.656;23.292;2022-07-01T00:43:09;94379.84;;;22.11;66.48
9676;BME280;4876;42.656;23.292;2022-07-01T00:45:35;94383.31;;;22.33;66.48
9676;BME280;4876;42.656;23.292;2022-07-01T00:48:02;94374.88;;;22.27;66.75
9676;BME280;4876;42.656;23.292;2022-07-01T00:50:32;94376.44;;;22.42;66.17
9676;BME280;4876;42.656;23.292;2022-07-01T00:52:58;94370.28;;;22.56;65.58
9676;BME280;4876;42.656;23.292;2022-07-01T00:55:25;94379.47;;;22.58;65.78
9676;BME280;4876;42.656;23.292;2022-07-01T00:57:53;94370.66;;;22.69;65.11
9676;BME280;4876;42.656;23.292;2022-07-01T01:00:20;94384.03;;;22.83;64.80
9676;BME280;4876;42.656;23.292;2022-07-01T01:05:33;94384.38;;;23.06;64.15
9676;BME280;4876;42.656;23.292;2022-07-01T01:08:00;94399.25;;;23.29;63.23
9676;BME280;4876;42.656;23.292;2022-07-01T01:10:27;94388.50;;;23.29;63.60
9676;BME280;4876;42.656;23.292;2022-07-01T01:12:56;94390.78;;;23.34;63.28
9676;BME280;4876;42.656;23.292;2022-07-01T01:15:23;94392.00;;;23.19;63.80
9676;BME280;4876;42.656;23.292;2022-07-01T01:17:50;94387.41;;;23.19;63.83
9676;BME280;4876;42.656;23.292;2022-07-01T01:20:18;94386.31;;;23.02;64.68
9676;BME280;4876;42.656;23.292;2022-07-01T01:22:47;94388.19;;;23.13;63.79
9676;BME280;4876;42.656;23.292;2022-07-01T01:25:14;94383.97;;;23.19;63.55
9676;BME280;4876;42.656;23.292;2022-07-01T01:27:41;94382.41;;;23.25;63.20
9676;BME280;4876;42.656;23.292;2022-07-01T01:30:10;94376.25;;;23.31;62.27
9676;BME280;4876;42.656;23.292;2022-07-01T01:32:38;94391.19;;;23.29;62.93
9676;BME280;4876;42.656;23.292;2022-07-01T01:35:06;94380.06;;;23.34;63.00
9676;BME280;4876;42.656;23.292;2022-07-01T01:37:33;94384.69;;;23.30;63.36
9676;BME280;4876;42.656;23.292;2022-07-01T01:40:02;94391.22;;;23.25;63.34
9676;BME280;4876;42.656;23.292;2022-07-01T01:42:29;94378.63;;;23.08;64.30
9676;BME280;4876;42.656;23.292;2022-07-01T01:44:56;94387.38;;;23.23;63.67
9676;BME280;4876;42.656;23.292;2022-07-01T01:47:23;94393.91;;;23.22;63.84
9676;BME280;4876;42.656;23.292;2022-07-01T01:49:50;94393.97;;;23.11;64.36
9676;BME280;4876;42.656;23.292;2022-07-01T01:52:17;94406.22;;;23.12;64.11
9676;BME280;4876;42.656;23.292;2022-07-01T01:54:43;94400.81;;;23.16;64.03
9676;BME280;4876;42.656;23.292;2022-07-01T01:57:12;94405.81;;;23.17;64.21
9676;BME280;4876;42.656;23.292;2022-07-01T01:59:39;94403.81;;;23.39;62.97
9676;BME280;4876;42.656;23.292;2022-07-01T02:02:06;94400.38;;;23.38;63.02
9676;BME280;4876;42.656;23.292;2022-07-01T02:04:33;94401.16;;;23.32;63.50
9676;BME280;4876;42.656;23.292;2022-07-01T02:07:00;94400.75;;;23.33;63.23
9676;BME280;4876;42.656;23.292;2022-07-01T02:09:27;94398.09;;;23.37;63.44
9676;BME280;4876;42.656;23.292;2022-07-01T02:11:54;94394.66;;;23.26;63.29
9676;BME280;4876;42.656;23.292;2022-07-01T02:14:22;94392.72;;;23.33;63.27
9676;BME280;4876;42.656;23.292;2022-07-01T02:16:49;94400.00;;;23.33;62.54
9676;BME280;4876;42.656;23.292;2022-07-01T02:19:16;94404.59;;;23.32;62.95
9676;BME280;4876;42.656;23.292;2022-07-01T02:21:43;94411.56;;;23.08;63.16
9676;BME280;4876;42.656;23.292;2022-07-01T02:24:10;94398.97;;;22.98;63.47
9676;BME280;4876;42.656;23.292;2022-07-01T02:26:36;94413.53;;;23.01;64.02
9676;BME280;4876;42.656;23.292;2022-07-01T02:29:03;94415.44;;;23.00;64.08
9676;BME280;4876;42.656;23.292;2022-07-01T02:31:32;94419.66;;;22.76;65.00
9676;BME280;4876;42.656;23.292;2022-07-01T02:33:58;94423.09;;;22.91;64.74
9676;BME280;4876;42.656;23.292;2022-07-01T02:36:25;94425.78;;;22.91;64.76
9676;BME280;4876;42.656;23.292;2022-07-01T02:38:52;94426.56;;;22.95;64.57
9676;BME280;4876;42.656;23.292;2022-07-01T02:41:19;94426.56;;;22.92;64.60
9676;BME280;4876;42.656;23.292;2022-07-01T02:43:46;94441.88;;;23.05;63.99
9676;BME280;4876;42.656;23.292;2022-07-01T02:46:12;94435.34;;;23.06;64.18
9676;BME280;4876;42.656;23.292;2022-07-01T02:48:40;94431.53;;;22.97;64.43
9676;BME280;4876;42.656;23.292;2022-07-01T02:51:07;94432.31;;;23.04;64.19
9676;BME280;4876;42.656;23.292;2022-07-01T02:53:34;94437.66;;;23.12;63.58
9676;BME280;4876;42.656;23.292;2022-07-01T02:56:01;94436.50;;;22.77;65.29
9676;BME280;4876;42.656;23.292;2022-07-01T02:58:28;94440.72;;;22.85;65.23
9676;BME280;4876;42.656;23.292;2022-07-01T03:00:55;94441.50;;;22.89;65.15
9676;BME280;4876;42.656;23.292;2022-07-01T03:03:21;94436.16;;;22.93;64.95
9676;BME280;4876;42.656;23.292;2022-07-01T03:05:50;94442.22;;;23.18;64.40
9676;BME280;4876;42.656;23.292;2022-07-01T03:08:16;94442.91;;;23.40;63.27
9676;BME280;4876;42.656;23.292;2022-07-01T03:10:43;94445.94;;;23.53;63.37
9676;BME280;4876;42.656;23.292;2022-07-01T03:13:10;94446.97;;;23.84;62.35
9676;BME280;4876;42.656;23.292;2022-07-01T03:15:37;94460.16;;;24.30;60.66
9676;BME280;4876;42.656;23.292;2022-07-01T03:18:04;94467.59;;;24.67;59.78
9676;BME280;4876;42.656;23.292;2022-07-01T03:20:30;94467.56;;;25.19;58.63
9676;BME280;4876;42.656;23.292;2022-07-01T03:22:59;94471.50;;;25.45;58.16
9676;BME280;4876;42.656;23.292;2022-07-01T03:25:26;94470.81;;;25.75;56.51
9676;BME280;4876;42.656;23.292;2022-07-01T03:27:53;94474.13;;;26.17;56.07
9676;BME280;4876;42.656;23.292;2022-07-01T03:30:20;94465.97;;;26.75;54.42
9676;BME280;4876;42.656;23.292;2022-07-01T03:32:46;94464.06;;;27.22;53.69
9676;BME280;4876;42.656;23.292;2022-07-01T03:35:13;94468.19;;;27.70;51.75
9676;BME280;4876;42.656;23.292;2022-07-01T03:37:59;94469.13;;;28.00;50.67
9676;BME280;4876;42.656;23.292;2022-07-01T03:40:26;94470.16;;;28.06;50.46
9676;BME280;4876;42.656;23.292;2022-07-01T03:42:52;94476.81;;;28.21;50.40
9676;BME280;4876;42.656;23.292;2022-07-01T03:45:19;94475.31;;;27.80;52.19
9676;BME280;4876;42.656;23.292;2022-07-01T03:47:46;94472.56;;;26.97;54.21
9676;BME280;4876;42.656;23.292;2022-07-01T03:50:14;94462.84;;;25.95;57.46
9676;BME280;4876;42.656;23.292;2022-07-01T03:52:41;94466.38;;;26.19;56.58
9676;BME280;4876;42.656;23.292;2022-07-01T03:55:10;94467.94;;;25.90;56.89
9676;BME280;4876;42.656;23.292;2022-07-01T03:57:36;94468.63;;;25.97;56.27
9676;BME280;4876;42.656;23.292;2022-07-01T04:00:04;94472.94;;;24.75;61.41
9676;BME280;4876;42.656;23.292;2022-07-01T04:02:31;94461.66;;;25.32;57.99
9676;BME280;4876;42.656;23.292;2022-07-01T04:04:58;94470.00;;;26.09;55.40
9676;BME280;4876;42.656;23.292;2022-07-01T04:07:25;94477.25;;;25.85;56.22
9676;BME280;4876;42.656;23.292;2022-07-01T04:09:53;94477.13;;;25.24;58.85
9676;BME280;4876;42.656;23.292;2022-07-01T04:12:21;94471.81;;;25.55;58.60
9676;BME280;4876;42.656;23.292;2022-07-01T04:14:48;94467.13;;;26.50;53.46
9676;BME280;4876;42.656;23.292;2022-07-01T04:17:15;94474.91;;;26.45;53.54
9676;BME280;4876;42.656;23.292;2022-07-01T04:19:41;94479.72;;;25.35;58.97
9676;BME280;4876;42.656;23.292;2022-07-01T04:22:08;94492.00;;;25.70;57.68
9676;BME280;4876;42.656;23.292;2022-07-01T04:24:52;94483.94;;;25.73;57.37
9676;BME280;4876;42.656;23.292;2022-07-01T04:27:20;94491.47;;;26.16;54.94
9676;BME280;4876;42.656;23.292;2022-07-01T04:29:47;94488.28;;;25.60;57.17
9676;BME280;4876;42.656;23.292;2022-07-01T04:32:14;94491.28;;;26.30;55.81
9676;BME280;4876;42.656;23.292;2022-07-01T04:34:41;94498.00;;;26.73;53.46
9676;BME280;4876;42.656;23.292;2022-07-01T04:37:08;94502.16;;;26.23;55.78
9676;BME280;4876;42.656;23.292;2022-07-01T04:39:35;94496.78;;;26.23;55.86
9676;BME280;4876;42.656;23.292;2022-07-01T04:42:02;94489.38;;;26.00;57.28
9676;BME280;4876;42.656;23.292;2022-07-01T04:44:31;94487.16;;;25.92;57.64
9676;BME280;4876;42.656;23.292;2022-07-01T04:46:59;94487.97;;;25.89;57.59
9676;BME280;4876;42.656;23.292;2022-07-01T04:49:26;94488.38;;;25.53;58.74
9676;BME280;4876;42.656;23.292;2022-07-01T04:51:54;94478.94;;;24.89;59.38
9676;BME280;4876;42.656;23.292;2022-07-01T04:54:21;94492.91;;;25.60;57.03
9676;BME280;4876;42.656;23.292;2022-07-01T04:56:48;94485.69;;;25.87;56.06
9676;BME280;4876;42.656;23.292;2022-07-01T04:59:15;94482.34;;;25.42;58.70
9676;BME280;4876;42.656;23.292;2022-07-01T05:01:44;94481.59;;;25.75;58.29
9676;BME280;4876;42.656;23.292;2022-07-01T05:04:11;94476.28;;;25.31;59.14
9676;BME280;4876;42.656;23.292;2022-07-01T05:06:38;94480.06;;;25.71;58.74
9676;BME280;4876;42.656;23.292;2022-07-01T05:09:05;94479.72;;;25.69;57.63
9676;BME280;4876;42.656;23.292;2022-07-01T05:11:32;94488.16;;;26.05;59.00
9676;BME280;4876;42.656;23.292;2022-07-01T05:13:59;94489.47;;;26.20;57.00
9676;BME280;4876;42.656;23.292;2022-07-01T05:16:26;94494.81;;;25.97;56.72
9676;BME280;4876;42.656;23.292;2022-07-01T05:18:54;94492.13;;;26.24;55.97
9676;BME280;4876;42.656;23.292;2022-07-01T05:21:38;94499.63;;;26.40;56.18
9676;BME280;4876;42.656;23.292;2022-07-01T05:24:24;94498.50;;;26.41;56.31
9676;BME280;4876;42.656;23.292;2022-07-01T05:26:52;94494.69;;;26.35;55.80
9676;BME280;4876;42.656;23.292;2022-07-01T05:29:19;94489.44;;;26.54;54.74
9676;BME280;4876;42.656;23.292;2022-07-01T05:31:47;94497.75;;;26.64;54.94
9676;BME280;4876;42.656;23.292;2022-07-01T05:34:15;94501.78;;;26.52;55.67
9676;BME280;4876;42.656;23.292;2022-07-01T05:36:42;94501.94;;;26.68;54.50
9676;BME280;4876;42.656;23.292;2022-07-01T05:39:09;94495.22;;;26.53;55.10
9676;BME280;4876;42.656;23.292;2022-07-01T05:41:37;94491.00;;;26.52;55.40
9676;BME280;4876;42.656;23.292;2022-07-01T05:44:04;94492.69;;;26.39;55.98
9676;BME280;4876;42.656;23.292;2022-07-01T05:46:31;94500.25;;;26.51;56.09
9676;BME280;4876;42.656;23.292;2022-07-01T05:48:58;94498.59;;;26.03;56.80
9676;BME280;4876;42.656;23.292;2022-07-01T05:51:26;94494.72;;;26.04;56.68
9676;BME280;4876;42.656;23.292;2022-07-01T05:53:53;94491.56;;;26.09;55.99
9676;BME280;4876;42.656;23.292;2022-07-01T05:56:21;94484.00;;;26.27;56.22
9676;BME280;4876;42.656;23.292;2022-07-01T05:58:48;94486.41;;;26.49;54.03
9676;BME280;4876;42.656;23.292;2022-07-01T06:01:15;94495.72;;;26.95;54.47
9676;BME280;4876;42.656;23.292;2022-07-01T06:03:42;94501.88;;;26.45;56.89
9676;BME280;4876;42.656;23.292;2022-07-01T06:06:08;94500.88;;;26.62;55.48
9676;BME280;4876;42.656;23.292;2022-07-01T06:08:37;94499.38;;;27.08;53.42
9676;BME280;4876;42.656;23.292;2022-07-01T06:11:03;94500.84;;;27.56;52.68
9676;BME280;4876;42.656;23.292;2022-07-01T06:13:30;94494.81;;;27.48;52.58
9676;BME280;4876;42.656;23.292;2022-07-01T06:15:57;94499.59;;;26.94;52.76
9676;BME280;4876;42.656;23.292;2022-07-01T06:18:25;94498.00;;;27.43;52.69
9676;BME280;4876;42.656;23.292;2022-07-01T06:20:52;94500.56;;;27.30;53.53
9676;BME280;4876;42.656;23.292;2022-07-01T06:23:19;94498.78;;;26.97;53.56
9676;BME280;4876;42.656;23.292;2022-07-01T06:25:47;94503.22;;;27.10;52.88
9676;BME280;4876;42.656;23.292;2022-07-01T06:28:14;94493.38;;;27.44;52.22
9676;BME280;4876;42.656;23.292;2022-07-01T06:30:41;94503.72;;;27.25;52.42
9676;BME280;4876;42.656;23.292;2022-07-01T06:33:11;94506.09;;;27.23;52.45
9676;BME280;4876;42.656;23.292;2022-07-01T06:38:05;94501.44;;;27.87;51.41
9676;BME280;4876;42.656;23.292;2022-07-01T06:40:32;94513.59;;;27.35;53.32
9676;BME280;4876;42.656;23.292;2022-07-01T06:43:00;94499.66;;;27.80;54.14
9676;BME280;4876;42.656;23.292;2022-07-01T06:45:27;94499.81;;;27.50;53.72
9676;BME280;4876;42.656;23.292;2022-07-01T06:47:54;94509.56;;;27.87;52.47
9676;BME280;4876;42.656;23.292;2022-07-01T06:50:21;94496.94;;;28.00;52.36
9676;BME280;4876;42.656;23.292;2022-07-01T06:52:48;94502.22;;;28.43;51.48
9676;BME280;4876;42.656;23.292;2022-07-01T06:55:15;94506.84;;;28.07;51.31
9676;BME280;4876;42.656;23.292;2022-07-01T06:57:42;94505.59;;;27.05;54.98
9676;BME280;4876;42.656;23.292;2022-07-01T07:00:11;94495.41;;;27.16;54.14
9676;BME280;4876;42.656;23.292;2022-07-01T07:02:38;94485.00;;;27.58;53.06
9676;BME280;4876;42.656;23.292;2022-07-01T07:05:07;94494.03;;;27.71;52.35
9676;BME280;4876;42.656;23.292;2022-07-01T07:07:34;94499.75;;;28.13;51.82
9676;BME280;4876;42.656;23.292;2022-07-01T07:10:01;94503.34;;;27.70;52.03
9676;BME280;4876;42.656;23.292;2022-07-01T07:12:28;94498.84;;;28.20;51.73
9676;BME280;4876;42.656;23.292;2022-07-01T07:14:55;94500.97;;;28.28;52.08
9676;BME280;4876;42.656;23.292;2022-07-01T07:17:23;94505.94;;;28.50;52.74
9676;BME280;4876;42.656;23.292;2022-07-01T07:19:50;94506.22;;;28.72;50.96
9676;BME280;4876;42.656;23.292;2022-07-01T07:22:17;94503.41;;;28.42;51.18
9676;BME280;4876;42.656;23.292;2022-07-01T07:24:44;94506.16;;;28.91;50.21
9676;BME280;4876;42.656;23.292;2022-07-01T07:27:10;94509.38;;;29.03;49.49
9676;BME280;4876;42.656;23.292;2022-07-01T07:29:37;94509.28;;;28.74;51.77
9676;BME280;4876;42.656;23.292;2022-07-01T07:32:05;94506.47;;;28.61;50.78
9676;BME280;4876;42.656;23.292;2022-07-01T07:34:33;94498.34;;;28.61;50.47
9676;BME280;4876;42.656;23.292;2022-07-01T07:37:00;94507.88;;;28.33;52.36
9676;BME280;4876;42.656;23.292;2022-07-01T07:39:27;94503.34;;;28.26;53.22
9676;BME280;4876;42.656;23.292;2022-07-01T07:41:54;94508.34;;;28.80;50.95
9676;BME280;4876;42.656;23.292;2022-07-01T07:44:20;94497.81;;;28.50;52.63
9676;BME280;4876;42.656;23.292;2022-07-01T07:46:47;94508.50;;;28.57;51.14
9676;BME280;4876;42.656;23.292;2022-07-01T07:49:14;94505.63;;;29.29;48.90
9676;BME280;4876;42.656;23.292;2022-07-01T07:51:42;94501.59;;;29.05;49.29
9676;BME280;4876;42.656;23.292;2022-07-01T07:54:09;94474.69;;;28.98;50.15
9676;BME280;4876;42.656;23.292;2022-07-01T07:56:36;94497.34;;;28.87;51.08
9676;BME280;4876;42.656;23.292;2022-07-01T07:59:03;94496.91;;;29.67;48.96
9676;BME280;4876;42.656;23.292;2022-07-01T08:01:30;94504.13;;;29.86;48.70
9676;BME280;4876;42.656;23.292;2022-07-01T08:03:57;94500.34;;;29.55;49.93
9676;BME280;4876;42.656;23.292;2022-07-01T08:06:23;94496.94;;;30.09;48.23
9676;BME280;4876;42.656;23.292;2022-07-01T08:08:52;94491.00;;;30.14;49.46
9676;BME280;4876;42.656;23.292;2022-07-01T08:11:18;94490.66;;;30.12;47.91
9676;BME280;4876;42.656;23.292;2022-07-01T08:13:45;94490.56;;;30.53;47.34
9676;BME280;4876;42.656;23.292;2022-07-01T08:16:12;94489.75;;;29.60;49.48
9676;BME280;4876;42.656;23.292;2022-07-01T08:18:39;94484.31;;;29.89;48.71
9676;BME280;4876;42.656;23.292;2022-07-01T08:21:06;94485.34;;;29.79;47.39
9676;BME280;4876;42.656;23.292;2022-07-01T08:23:32;94478.00;;;29.50;47.97
9676;BME280;4876;42.656;23.292;2022-07-01T08:26:02;94476.22;;;29.73;47.76
9676;BME280;4876;42.656;23.292;2022-07-01T08:28:29;94474.13;;;29.52;48.13
9676;BME280;4876;42.656;23.292;2022-07-01T08:30:56;94466.72;;;28.90;50.19
9676;BME280;4876;42.656;23.292;2022-07-01T08:33:23;94476.03;;;28.89;48.39
9676;BME280;4876;42.656;23.292;2022-07-01T08:35:50;94476.31;;;28.95;49.95
9676;BME280;4876;42.656;23.292;2022-07-01T08:38:17;94466.91;;;29.00;49.94
9676;BME280;4876;42.656;23.292;2022-07-01T08:40:44;94480.97;;;29.69;48.32
9676;BME280;4876;42.656;23.292;2022-07-01T08:43:12;94473.72;;;29.66;48.92
9676;BME280;4876;42.656;23.292;2022-07-01T08:45:39;94474.50;;;30.21;47.84
9676;BME280;4876;42.656;23.292;2022-07-01T08:48:06;94475.06;;;30.28;47.61
9676;BME280;4876;42.656;23.292;2022-07-01T08:50:36;94469.81;;;29.67;49.93
9676;BME280;4876;42.656;23.292;2022-07-01T08:53:03;94473.72;;;29.49;47.96
9676;BME280;4876;42.656;23.292;2022-07-01T08:55:30;94478.41;;;29.49;47.22
9676;BME280;4876;42.656;23.292;2022-07-01T08:57:58;94473.91;;;29.59;47.84
9676;BME280;4876;42.656;23.292;2022-07-01T09:00:32;94473.31;;;29.51;45.76
9676;BME280;4876;42.656;23.292;2022-07-01T09:03:01;94476.94;;;29.90;46.33
9676;BME280;4876;42.656;23.292;2022-07-01T09:05:29;94475.00;;;30.03;45.87
9676;BME280;4876;42.656;23.292;2022-07-01T09:07:59;94475.19;;;30.38;46.08
9676;BME280;4876;42.656;23.292;2022-07-01T09:10:27;94469.31;;;30.39;46.00
9676;BME280;4876;42.656;23.292;2022-07-01T09:12:56;94472.78;;;30.52;46.68
9676;BME280;4876;42.656;23.292;2022-07-01T09:15:26;94484.19;;;30.73;45.85
9676;BME280;4876;42.656;23.292;2022-07-01T09:17:56;94471.34;;;30.61;44.71
9676;BME280;4876;42.656;23.292;2022-07-01T09:20:30;94453.13;;;30.23;44.89
9676;BME280;4876;42.656;23.292;2022-07-01T09:23:05;94476.16;;;30.44;46.52
9676;BME280;4876;42.656;23.292;2022-07-01T09:25:35;94447.81;;;30.32;43.13
9676;BME280;4876;42.656;23.292;2022-07-01T09:28:09;94476.78;;;30.61;44.11
9676;BME280;4876;42.656;23.292;2022-07-01T09:30:39;94483.19;;;30.54;43.66
9676;BME280;4876;42.656;23.292;2022-07-01T09:33:17;94434.53;;;30.09;44.79
9676;BME280;4876;42.656;23.292;2022-07-01T09:35:46;94396.88;;;29.98;43.43
9676;BME280;4876;42.656;23.292;2022-07-01T09:38:15;94465.84;;;30.51;43.60
9676;BME280;4876;42.656;23.292;2022-07-01T09:40:47;94460.84;;;30.63;43.69
9676;BME280;4876;42.656;23.292;2022-07-01T09:43:16;94465.72;;;30.93;44.82
9676;BME280;4876;42.656;23.292;2022-07-01T09:46:06;94456.88;;;31.36;43.24
9676;BME280;4876;42.656;23.292;2022-07-01T09:48:45;94464.06;;;31.43;43.04
9676;BME280;4876;42.656;23.292;2022-07-01T09:51:13;94464.13;;;31.52;41.75
9676;BME280;4876;42.656;23.292;2022-07-01T09:53:41;94448.22;;;30.94;41.77
9676;BME280;4876;42.656;23.292;2022-07-01T09:56:08;94449.97;;;30.88;41.42
9676;BME280;4876;42.656;23.292;2022-07-01T09:58:35;94446.84;;;31.12;44.13
9676;BME280;4876;42.656;23.292;2022-07-01T10:01:04;94446.72;;;30.68;44.81
9676;BME280;4876;42.656;23.292;2022-07-01T10:03:32;94432.59;;;30.73;42.82
9676;BME280;4876;42.656;23.292;2022-07-01T10:09:17;94447.78;;;31.18;42.55
9676;BME280;4876;42.656;23.292;2022-07-01T10:12:16;94447.72;;;31.08;43.07
9676;BME280;4876;42.656;23.292;2022-07-01T10:14:48;94438.63;;;31.37;42.06
9676;BME280;4876;42.656;23.292;2022-07-01T10:17:26;94449.97;;;31.57;40.28
9676;BME280;4876;42.656;23.292;2022-07-01T10:19:54;94438.56;;;31.28;38.15
9676;BME280;4876;42.656;23.292;2022-07-01T10:22:26;94440.72;;;31.20;37.77
9676;BME280;4876;42.656;23.292;2022-07-01T10:24:55;94410.56;;;31.05;38.41
9676;BME280;4876;42.656;23.292;2022-07-01T10:27:24;94433.69;;;31.10;38.81
9676;BME280;4876;42.656;23.292;2022-07-01T10:30:12;94435.69;;;30.97;38.18
9676;BME280;4876;42.656;23.292;2022-07-01T10:32:43;94435.09;;;31.15;35.18
9676;BME280;4876;42.656;23.292;2022-07-01T10:35:13;94421.97;;;31.13;37.51
9676;BME280;4876;42.656;23.292;2022-07-01T10:37:56;94425.94;;;31.56;36.58
9676;BME280;4876;42.656;23.292;2022-07-01T10:40:42;94413.91;;;31.66;34.42
9676;BME280;4876;42.656;23.292;2022-07-01T10:43:15;94412.38;;;31.65;31.88
9676;BME280;4876;42.656;23.292;2022-07-01T10:45:51;94407.50;;;31.60;34.00
9676;BME280;4876;42.656;23.292;2022-07-01T10:48:21;94402.16;;;31.47;35.13
9676;BME280;4876;42.656;23.292;2022-07-01T10:50:49;94393.84;;;31.73;34.11
9676;BME280;4876;42.656;23.292;2022-07-01T10:53:17;94398.56;;;32.03;34.01
9676;BME280;4876;42.656;23.292;2022-07-01T10:55:48;94393.78;;;31.85;33.74
9676;BME280;4876;42.656;23.292;2022-07-01T10:58:15;94402.41;;;31.62;29.73
9676;BME280;4876;42.656;23.292;2022-07-01T11:00:45;94401.66;;;31.61;29.29
9676;BME280;4876;42.656;23.292;2022-07-01T11:03:15;94408.72;;;31.59;30.76
9676;BME280;4876;42.656;23.292;2022-07-01T11:05:44;94415.59;;;31.73;29.88
9676;BME280;4876;42.656;23.292;2022-07-01T11:08:12;94407.25;;;31.89;30.36
9676;BME280;4876;42.656;23.292;2022-07-01T11:10:40;94403.03;;;31.88;30.40
9676;BME280;4876;42.656;23.292;2022-07-01T11:13:12;94402.88;;;31.92;31.22
9676;BME280;4876;42.656;23.292;2022-07-01T11:15:39;94397.16;;;31.99;30.98
9676;BME280;4876;42.656;23.292;2022-07-01T11:18:07;94401.97;;;32.26;29.72
9676;BME280;4876;42.656;23.292;2022-07-01T11:20:33;94393.66;;;31.89;30.30
9676;BME280;4876;42.656;23.292;2022-07-01T11:23:00;94396.16;;;32.05;31.10
9676;BME280;4876;42.656;23.292;2022-07-01T11:25:27;94391.19;;;32.13;30.68
9676;BME280;4876;42.656;23.292;2022-07-01T11:27:56;94396.22;;;32.24;31.30
9676;BME280;4876;42.656;23.292;2022-07-01T11:30:24;94348.06;;;32.02;31.12
9676;BME280;4876;42.656;23.292;2022-07-01T11:32:53;94393.50;;;32.24;30.15
9676;BME280;4876;42.656;23.292;2022-07-01T11:35:22;94370.13;;;32.04;31.62
9676;BME280;4876;42.656;23.292;2022-07-01T11:38:09;94393.09;;;32.03;30.95
9676;BME280;4876;42.656;23.292;2022-07-01T11:40:54;94383.81;;;32.23;30.60
9676;BME280;4876;42.656;23.292;2022-07-01T11:43:22;94387.13;;;32.18;33.03
9676;BME280;4876;42.656;23.292;2022-07-01T11:45:51;94370.47;;;32.06;32.84
9676;BME280;4876;42.656;23.292;2022-07-01T11:48:35;94370.41;;;31.97;33.68
9676;BME280;4876;42.656;23.292;2022-07-01T11:51:09;94383.34;;;31.84;29.99
9676;BME280;4876;42.656;23.292;2022-07-01T11:53:37;94375.06;;;31.87;30.49
9676;BME280;4876;42.656;23.292;2022-07-01T11:56:05;94372.03;;;31.63;32.18
9676;BME280;4876;42.656;23.292;2022-07-01T11:58:46;94368.88;;;31.87;32.16
9676;BME280;4876;42.656;23.292;2022-07-01T12:01:23;94360.19;;;31.79;32.62
9676;BME280;4876;42.656;23.292;2022-07-01T12:03:50;94369.63;;;31.87;28.04
9676;BME280;4876;42.656;23.292;2022-07-01T12:06:18;94363.59;;;31.93;28.69
9676;BME280;4876;42.656;23.292;2022-07-01T12:08:46;94357.75;;;32.03;30.24
9676;BME280;4876;42.656;23.292;2022-07-01T12:11:13;94357.78;;;32.12;30.35
9676;BME280;4876;42.656;23.292;2022-07-01T12:13:40;94352.94;;;32.16;31.34
9676;BME280;4876;42.656;23.292;2022-07-01T12:16:08;94350.56;;;32.28;31.10
9676;BME280;4876;42.656;23.292;2022-07-01T12:18:36;94356.13;;;32.15;30.85
9676;BME280;4876;42.656;23.292;2022-07-01T12:21:04;94358.09;;;32.14;31.03
9676;BME280;4876;42.656;23.292;2022-07-01T12:23:31;94350.84;;;32.30;31.61
9676;BME280;4876;42.656;23.292;2022-07-01T12:26:03;94357.50;;;32.29;31.10
9676;BME280;4876;42.656;23.292;2022-07-01T12:28:32;94350.25;;;32.26;30.39
9676;BME280;4876;42.656;23.292;2022-07-01T12:31:04;94342.34;;;32.09;29.63
9676;BME280;4876;42.656;23.292;2022-07-01T12:33:36;94348.53;;;32.10;29.13
9676;BME280;4876;42.656;23.292;2022-07-01T12:36:08;94343.38;;;32.03;29.50
9676;BME280;4876;42.656;23.292;2022-07-01T12:38:37;94353.22;;;32.09;30.57
9676;BME280;4876;42.656;23.292;2022-07-01T12:41:28;94346.25;;;31.68;31.41
9676;BME280;4876;42.656;23.292;2022-07-01T12:43:56;94321.25;;;31.60;29.82
9676;BME280;4876;42.656;23.292;2022-07-01T12:46:29;94337.75;;;31.97;30.72
9676;BME280;4876;42.656;23.292;2022-07-01T12:48:58;94338.03;;;31.90;30.45
9676;BME280;4876;42.656;23.292;2022-07-01T12:51:29;94330.91;;;31.83;31.51
9676;BME280;4876;42.656;23.292;2022-07-01T12:53:57;94333.69;;;31.93;31.77
9676;BME280;4876;42.656;23.292;2022-07-01T12:56:25;94337.06;;;32.15;32.67
9676;BME280;4876;42.656;23.292;2022-07-01T12:58:53;94341.16;;;32.20;33.61
9676;BME280;4876;42.656;23.292;2022-07-01T13:01:21;94323.63;;;32.21;33.19
9676;BME280;4876;42.656;23.292;2022-07-01T13:03:48;94282.78;;;32.11;33.20
9676;BME280;4876;42.656;23.292;2022-07-01T13:06:17;94323.16;;;32.22;33.39
9676;BME280;4876;42.656;23.292;2022-07-01T13:08:44;94330.22;;;32.01;31.43
9676;BME280;4876;42.656;23.292;2022-07-01T13:11:11;94328.25;;;31.93;31.92
9676;BME280;4876;42.656;23.292;2022-07-01T13:13:38;94322.69;;;32.05;31.81
9676;BME280;4876;42.656;23.292;2022-07-01T13:16:05;94326.34;;;32.30;32.01
9676;BME280;4876;42.656;23.292;2022-07-01T13:18:32;94332.19;;;31.70;38.22
9676;BME280;4876;42.656;23.292;2022-07-01T13:20:59;94332.28;;;31.57;40.31
9676;BME280;4876;42.656;23.292;2022-07-01T13:23:27;94328.44;;;31.45;40.00
9676;BME280;4876;42.656;23.292;2022-07-01T13:25:54;94335.75;;;31.14;39.67